MZBZ/BZE METAR and TAF weather

Enter ICAO airport designator
Station Type Date Time Source
MZBZ METAR 2019/10/21 00:00 UTC NOAA

MZBZ 210000Z 10005KT 9999 SCT021 29/26 A2981 Q1009 NOSIG


Station Type Date Time Source
MZBZ Decoded METAR 2019/10/21 00:00 UTC NOAA

Belize / Phillip Goldston Intl. Airport, Belize (MZBZ) 17-32N 088-18W 5M
Oct 20, 2019 - 08:00 PM EDT / 2019.10.21 0000 UTC
Wind: from the E (100 degrees) at 6 MPH (5 KT):0
Visibility: greater than 7 mile(s):0
Sky conditions: partly cloudy
Temperature: 84 F (29 C)
Dew Point: 78 F (26 C)
Relative Humidity: 83%
Pressure (altimeter): 29.81 in. Hg (1009 hPa)
ob: MZBZ 210000Z 10005KT 9999 SCT021 29/26 A2981 Q1009 NOSIG
cycle: 0

Station Type Date Time Source
MZBZ TAF 2019/10/20 18:14 UTC NOAA

TAF MZBZ 201500Z 2018/2118 11005KT 9999 SCT023

Example: see airport list